Accueil
METAR-TAF:

METAR-TAF

Aéroports :

Aéroport international Roman-Tmetuchl

Koror, Babeldaob, Palaos

latitude: 07-22N, longitude: 134-32E, altitude: 54 m

Observation

Le bulletin a été fait il y a 32 minutes, à 18:50 UTC
Vent 5 kt de est
Température 25°C
Humidité 94%
Pression 1008 hPa
Visibilité: 22.5 km
Nuages fragmentés à une hauteur de 1500 ft, Cumulonimbus.
Nuages fragmentés à une hauteur de 28000 ft

METAR: PTRO 201850Z 08005KT 14SM BKN015CB BKN280 25/24 A2978 RMK CB ALQDS AND OHD

Heure: 04:22 (19:22 UTC)

Prévision

Le bulletin a été fait il y a 2 heures et 2 minutes, à 17:20 UTC
Prévision valable du 20 à 18 UTC au 21 à 18 UTC
Vent 7 kt de nord/nord-est
Visibilité: 10 km
Nuages épars à une hauteur de 1600 ft
Nuages fragmentés à une hauteur de 10000 ft
averses à proximité

TAF: PTRO 201720Z 2018/2118 03007KT P6SM VCSH SCT016 BKN100

Observations et prévisions météorologiques de plus de 4000 aéroports (messages METAR et TAF).

Les stations disponibles sont représentées par des disques jaunes et rouges sur la carte.

Passer la souris dessus pour voir le nom de la station.

Cliquer dessus pour voir les observations et prévisions météorologiques.

Pour changer de carte: cliquez sur les boutons verts avec une croix noire pour zoomer, sur le bouton vert avec un tiret pour effectuer un zoom arrière, ou sur les flèches vertes pour les cartes adjacentes.


METAR-TAF: